Terminal Aerodrome Forecast
Issued by NWS

Home | Current Version | Previous Version | Text Only | Print | Product List | Glossary On
Versions: 1 2 3 4 5 6 7 8 9 10 11 12 13
000
FTUS43 KFGF 181100
TAFTVF
TAF
KTVF 181139Z 1812/1912 07008KT P6SM SKC
     FM181600 13012KT P6SM SCT250
     FM182100 16010KT P6SM BKN130
     FM190800 08010KT P6SM -RA BKN060
      AMD LTD TO CLD VIS AND WIND=

USA.gov is the U.S. government's official web portal to all federal, state and local government web resources and services.